createdAt,value
2019-04-05T00:02:35.945Z,10.32
2019-04-05T00:07:40.100Z,10.11
2019-04-05T00:12:44.189Z,9.82
2019-04-05T00:17:48.243Z,9.73
2019-04-05T00:22:52.305Z,9.54
2019-04-05T00:27:56.396Z,9.32
2019-04-05T00:33:00.461Z,9.04
2019-04-05T00:38:04.523Z,8.93
2019-04-05T00:43:08.596Z,8.80
2019-04-05T00:48:12.835Z,8.64
2019-04-05T00:53:16.916Z,8.48
2019-04-05T00:58:21.287Z,8.29
2019-04-05T01:03:25.329Z,7.92
2019-04-05T01:08:29.390Z,7.92
2019-04-05T01:13:34.036Z,7.88
2019-04-05T01:18:38.070Z,7.89
2019-04-05T01:23:44.258Z,7.72
2019-04-05T01:28:48.346Z,7.52
2019-04-05T01:33:52.408Z,7.39
2019-04-05T01:38:56.423Z,7.33
2019-04-05T01:44:00.491Z,7.17
2019-04-05T01:49:04.682Z,7.10
2019-04-05T01:54:08.753Z,6.94
2019-04-05T01:59:13.084Z,6.90
2019-04-05T02:04:17.176Z,6.94
2019-04-05T02:09:21.539Z,6.95
2019-04-05T02:14:25.619Z,6.83
2019-04-05T02:19:29.652Z,6.75
2019-04-05T02:24:33.803Z,6.67
2019-04-05T02:29:37.812Z,6.55
2019-04-05T02:34:41.903Z,6.44
2019-04-05T02:39:46.071Z,6.40
2019-04-05T02:44:50.993Z,6.40
2019-04-05T02:49:56.619Z,6.32
2019-04-05T02:55:01.308Z,6.35
2019-04-05T03:00:05.507Z,6.27
2019-04-05T03:05:09.966Z,6.22
2019-04-05T03:10:50.350Z,6.13
2019-04-05T03:15:57.405Z,6.18
2019-04-05T03:21:04.369Z,5.96
2019-04-05T03:26:11.327Z,5.93
2019-04-05T03:31:15.510Z,5.89
2019-04-05T03:36:19.749Z,5.76
2019-04-05T03:41:23.870Z,5.67
2019-04-05T03:46:28.066Z,5.53
2019-04-05T03:51:32.618Z,5.48
2019-04-05T03:56:38.191Z,5.40
2019-04-05T04:01:42.773Z,5.34
2019-04-05T04:06:47.017Z,5.15
2019-04-05T04:11:51.691Z,5.11
2019-04-05T04:17:11.013Z,5.10
2019-04-05T04:22:31.265Z,5.08
2019-04-05T04:27:35.409Z,5.08
2019-04-05T04:32:40.296Z,5.02
2019-04-05T04:37:44.426Z,5.07
2019-04-05T04:42:49.740Z,5.00
2019-04-05T04:47:54.317Z,5.15
2019-04-05T04:52:59.356Z,5.20
2019-04-05T04:58:04.166Z,5.28
2019-04-05T05:03:08.857Z,5.56
2019-04-05T05:08:13.053Z,5.73
2019-04-05T05:13:17.270Z,5.85
2019-04-05T05:18:23.134Z,6.01
2019-04-05T05:23:27.182Z,6.13
2019-04-05T05:28:32.772Z,6.51
2019-04-05T05:33:37.581Z,6.84
2019-04-05T05:38:41.723Z,6.98
2019-04-05T05:43:46.470Z,7.06
2019-04-05T05:48:50.792Z,7.23
2019-04-05T05:53:55.155Z,7.46
2019-04-05T05:59:02.946Z,7.64
2019-04-05T06:04:07.316Z,7.58
2019-04-05T06:09:11.612Z,7.75
2019-04-05T06:14:15.663Z,7.71
2019-04-05T06:19:20.901Z,7.75
2019-04-05T06:24:25.069Z,7.86
2019-04-05T06:29:29.689Z,7.94
2019-04-05T06:34:33.987Z,7.99
2019-04-05T06:39:38.020Z,8.12
2019-04-05T06:44:42.302Z,8.27
2019-04-05T06:49:46.899Z,8.45
2019-04-05T06:54:50.992Z,8.50
2019-04-05T06:59:55.013Z,8.50
2019-04-05T07:04:59.017Z,8.38
2019-04-05T07:10:03.504Z,8.48
2019-04-05T07:15:07.598Z,8.52
2019-04-05T07:20:11.773Z,8.49
2019-04-05T07:25:15.797Z,8.51
2019-04-05T07:30:20.296Z,8.64
2019-04-05T07:35:33.282Z,8.82
2019-04-05T07:40:30.171Z,8.80
2019-04-05T07:45:34.142Z,8.82
2019-04-05T07:50:38.244Z,8.96
2019-04-05T07:55:42.263Z,8.98
2019-04-05T08:00:51.374Z,8.79
2019-04-05T08:05:55.438Z,9.00
2019-04-05T08:10:59.718Z,8.88
2019-04-05T08:16:03.899Z,8.82
2019-04-05T08:21:08.019Z,8.83
2019-04-05T08:26:12.083Z,8.87
2019-04-05T08:31:16.103Z,9.25
2019-04-05T08:36:20.125Z,9.21
2019-04-05T08:41:24.286Z,9.14
2019-04-05T08:46:28.384Z,9.13
2019-04-05T08:51:32.658Z,9.04
2019-04-05T08:56:36.665Z,9.02
2019-04-05T09:01:40.716Z,9.17
2019-04-05T09:06:46.082Z,9.03
2019-04-05T09:11:50.405Z,9.14
2019-04-05T09:16:54.455Z,9.02
2019-04-05T09:21:58.871Z,9.02
2019-04-05T09:27:02.907Z,8.98
2019-04-05T09:32:06.985Z,9.18
2019-04-05T09:37:11.150Z,9.12
2019-04-05T09:42:15.168Z,9.17
2019-04-05T09:47:19.488Z,9.28
2019-04-05T09:52:23.566Z,9.43
2019-04-05T09:57:27.664Z,9.43
2019-04-05T10:02:32.043Z,9.25
2019-04-05T10:07:36.132Z,9.23
2019-04-05T10:12:40.248Z,9.26
2019-04-05T10:17:44.524Z,9.28
2019-04-05T10:22:48.623Z,9.31
2019-04-05T10:27:52.645Z,9.31
2019-04-05T10:32:56.716Z,10.02
2019-04-05T10:38:00.716Z,10.02
2019-04-05T10:43:05.058Z,10.25
2019-04-05T10:48:09.179Z,10.28
2019-04-05T10:53:13.334Z,10.66
2019-04-05T10:58:17.687Z,11.21
2019-04-05T11:03:25.045Z,11.26
2019-04-05T11:08:47.376Z,11.35
2019-04-05T11:13:57.559Z,10.90
2019-04-05T11:19:02.685Z,11.04
2019-04-05T11:24:07.370Z,11.18
2019-04-05T11:29:12.674Z,11.31
2019-04-05T11:34:17.588Z,11.39
2019-04-05T11:39:22.030Z,11.58
2019-04-05T11:44:28.132Z,11.77
2019-04-05T11:49:40.869Z,11.74
2019-04-05T11:54:45.949Z,12.23
2019-04-05T11:59:50.748Z,12.20
2019-04-05T12:04:54.777Z,12.55
2019-04-05T12:09:59.553Z,13.22
2019-04-05T12:15:06.227Z,14.06
2019-04-05T12:20:11.263Z,14.08
2019-04-05T12:25:15.496Z,14.40
2019-04-05T12:30:20.262Z,14.69
2019-04-05T12:35:24.491Z,15.21
2019-04-05T12:40:28.470Z,15.17
2019-04-05T12:45:33.449Z,15.84
2019-04-05T12:50:37.563Z,15.96
2019-04-05T12:55:41.612Z,15.71
2019-04-05T13:00:46.036Z,15.66
2019-04-05T13:05:51.485Z,15.36
2019-04-05T13:10:57.026Z,15.84
2019-04-05T13:16:01.391Z,15.96
2019-04-05T13:21:14.514Z,15.78
2019-04-05T13:26:12.480Z,15.81
2019-04-05T13:31:18.880Z,15.78
2019-04-05T13:36:23.459Z,15.79
2019-04-05T13:41:31.467Z,15.72
2019-04-05T13:46:33.717Z,15.92
2019-04-05T13:51:41.567Z,16.51
2019-04-05T13:56:43.653Z,15.87
2019-04-05T14:01:50.888Z,16.77
2019-04-05T14:06:54.289Z,16.67
2019-04-05T14:12:02.446Z,16.52
2019-04-05T14:17:07.116Z,16.69
2019-04-05T14:22:11.967Z,16.82
2019-04-05T14:27:16.164Z,17.23
2019-04-05T14:32:21.674Z,17.56
2019-04-05T14:37:26.086Z,17.19
2019-04-05T14:42:30.125Z,17.28
2019-04-05T14:47:34.479Z,17.73
2019-04-05T14:52:38.616Z,17.68
2019-04-05T14:57:42.750Z,17.58
2019-04-05T15:02:46.870Z,17.59
2019-04-05T15:07:51.734Z,17.58
2019-04-05T15:12:56.401Z,17.88
2019-04-05T15:18:00.486Z,17.86
2019-04-05T15:23:04.634Z,17.45
2019-04-05T15:28:08.663Z,17.49
2019-04-05T15:33:12.717Z,17.77
2019-04-05T15:38:16.752Z,17.29
2019-04-05T15:43:20.769Z,17.35
2019-04-05T15:48:24.873Z,17.38
2019-04-05T15:53:31.883Z,17.17
2019-04-05T15:58:34.845Z,16.96
2019-04-05T16:03:39.170Z,17.01
2019-04-05T16:08:43.184Z,16.73
2019-04-05T16:13:47.188Z,16.95
2019-04-05T16:18:51.200Z,17.00
2019-04-05T16:23:55.323Z,16.95
2019-04-05T16:28:59.389Z,16.36
2019-04-05T16:34:03.423Z,16.06
2019-04-05T16:39:07.668Z,15.83
2019-04-05T16:44:11.681Z,15.56
2019-04-05T16:49:15.789Z,15.18
2019-04-05T16:54:20.078Z,14.71
2019-04-05T16:59:24.121Z,14.53
2019-04-05T17:04:28.177Z,14.27
2019-04-05T17:09:32.248Z,14.09
2019-04-05T17:14:36.329Z,13.83
2019-04-05T17:19:40.466Z,13.61
2019-04-05T17:24:44.751Z,13.21
2019-04-05T17:29:48.756Z,13.02
2019-04-05T17:34:53.085Z,12.62
2019-04-05T17:39:57.194Z,12.46
2019-04-05T17:45:01.486Z,12.27
2019-04-05T17:50:10.819Z,12.28
2019-04-05T17:55:15.216Z,12.06
2019-04-05T18:00:19.475Z,11.93
2019-04-05T18:05:23.600Z,11.83
2019-04-05T18:10:27.764Z,11.68
2019-04-05T18:15:32.061Z,11.51
2019-04-05T18:20:36.629Z,11.60
2019-04-05T18:25:41.067Z,11.60
2019-04-05T18:30:45.481Z,11.58
2019-04-05T18:35:49.804Z,11.55
2019-04-05T18:40:54.109Z,11.46
2019-04-05T18:46:09.739Z,11.43
2019-04-05T18:51:14.255Z,11.36
2019-04-05T18:56:18.469Z,11.30
2019-04-05T19:01:22.835Z,11.28
2019-04-05T19:06:27.934Z,11.24
2019-04-05T19:11:32.329Z,11.17
2019-04-05T19:16:36.856Z,11.18
2019-04-05T19:21:43.009Z,11.16
2019-04-05T19:26:47.391Z,11.13
2019-04-05T19:52:17.678Z,11.01
2019-04-05T19:57:22.512Z,11.01
2019-04-05T20:02:27.251Z,10.99
2019-04-05T20:07:32.384Z,11.02
2019-04-05T20:12:37.082Z,11.06
2019-04-05T20:17:42.457Z,10.96
2019-04-05T20:22:47.224Z,10.82
2019-04-05T20:27:51.555Z,10.82
2019-04-05T20:32:55.827Z,10.74
2019-04-05T20:38:00.168Z,10.64
2019-04-05T20:43:04.464Z,10.58
2019-04-05T20:48:08.722Z,10.40
2019-04-05T20:53:13.342Z,10.30
2019-04-05T20:58:17.707Z,10.20
2019-04-05T21:03:21.965Z,10.09
2019-04-05T21:08:26.214Z,10.15
2019-04-05T21:13:30.365Z,10.04
2019-04-05T21:18:34.875Z,10.02
2019-04-05T21:23:39.548Z,9.84
2019-04-05T21:28:43.722Z,9.72
2019-04-05T21:33:47.807Z,9.57
2019-04-05T21:38:52.137Z,9.42
2019-04-05T21:43:56.549Z,9.30
2019-04-05T21:49:00.637Z,9.18
2019-04-05T21:54:04.694Z,9.17
2019-04-05T21:59:09.151Z,8.94
2019-04-05T22:04:13.507Z,8.82
2019-04-05T22:09:17.569Z,8.73
2019-04-05T22:14:21.631Z,8.63
2019-04-05T22:19:26.421Z,8.61
2019-04-05T22:24:30.981Z,8.56
2019-04-05T22:29:35.699Z,8.57
2019-04-05T22:34:40.048Z,8.56
2019-04-05T22:39:44.680Z,8.59
2019-04-05T22:44:48.823Z,8.60
2019-04-05T22:49:52.893Z,8.43
2019-04-05T22:54:56.952Z,8.40
2019-04-05T23:00:01.018Z,8.40
2019-04-05T23:05:05.138Z,8.52
2019-04-05T23:10:09.779Z,8.38
2019-04-05T23:15:14.279Z,8.31
2019-04-05T23:20:18.362Z,8.18
2019-04-05T23:25:22.584Z,8.10
2019-04-05T23:30:26.710Z,7.94
2019-04-05T23:35:30.763Z,7.79
2019-04-05T23:40:34.813Z,7.65
2019-04-05T23:45:39.355Z,7.47
2019-04-05T23:50:43.448Z,7.47
2019-04-05T23:55:47.581Z,7.36
